createdAt,value
2023-05-13T00:02:02.097Z,101341.72
2023-05-13T00:04:29.815Z,101342.84
2023-05-13T00:06:58.157Z,101338.63
2023-05-13T00:09:25.791Z,101345.06
2023-05-13T00:11:54.888Z,101346.19
2023-05-13T00:14:24.261Z,101340.97
2023-05-13T00:16:52.136Z,101339.56
2023-05-13T00:19:19.822Z,101337.16
2023-05-13T00:21:47.468Z,101340.09
2023-05-13T00:24:15.035Z,101341.19
2023-05-13T00:26:43.601Z,101345.13
2023-05-13T00:29:12.501Z,101345.38
2023-05-13T00:31:40.179Z,101344.66
2023-05-13T00:34:07.812Z,101345.75
2023-05-13T00:36:35.389Z,101341.56
2023-05-13T00:39:03.669Z,101346.19
2023-05-13T00:41:31.312Z,101340.25
2023-05-13T00:43:59.108Z,101342.31
2023-05-13T00:46:32.577Z,101339.78
2023-05-13T00:49:01.963Z,101342.75
2023-05-13T00:51:29.629Z,101339.47
2023-05-13T00:53:59.503Z,101346.78
2023-05-13T00:56:28.043Z,101344.22
2023-05-13T00:58:55.569Z,101349.69
2023-05-13T01:01:39.479Z,101340.13
2023-05-13T01:04:15.657Z,101343.91
2023-05-13T01:06:53.235Z,101344.03
2023-05-13T01:09:29.858Z,101342.47
2023-05-13T01:12:03.231Z,101337.41
2023-05-13T01:14:38.151Z,101339.22
2023-05-13T01:22:03.143Z,101344.06
2023-05-13T01:24:56.485Z,101338.88
2023-05-13T01:27:24.416Z,101339.94
2023-05-13T01:30:17.792Z,101336.44
2023-05-13T01:32:48.025Z,101340.09
2023-05-13T01:35:18.096Z,101341.06
2023-05-13T01:37:51.184Z,101340.34
2023-05-13T01:40:44.166Z,101347.50
2023-05-13T01:43:13.172Z,101353.78
2023-05-13T01:45:40.963Z,101343.25
2023-05-13T01:48:09.163Z,101342.41
2023-05-13T01:50:46.183Z,101340.88
2023-05-13T01:53:15.312Z,101342.81
2023-05-13T01:55:43.599Z,101349.09
2023-05-13T01:58:11.625Z,101349.38
2023-05-13T02:00:40.352Z,101350.31
2023-05-13T02:03:08.797Z,101353.25
2023-05-13T02:05:37.200Z,101349.91
2023-05-13T02:08:08.932Z,101350.00
2023-05-13T02:10:40.765Z,101349.28
2023-05-13T02:13:08.717Z,101345.91
2023-05-13T02:15:37.194Z,101348.69
2023-05-13T02:18:06.672Z,101343.50
2023-05-13T02:20:34.359Z,101354.28
2023-05-13T02:23:01.956Z,101346.53
2023-05-13T02:25:31.175Z,101351.84
2023-05-13T02:28:01.548Z,101347.63
2023-05-13T02:30:30.745Z,101342.44
2023-05-13T02:33:01.268Z,101340.72
2023-05-13T02:35:30.005Z,101345.34
2023-05-13T02:37:59.711Z,101350.94
2023-05-13T02:40:29.595Z,101339.53
2023-05-13T02:42:59.342Z,101343.31
2023-05-13T02:45:45.421Z,101341.03
2023-05-13T02:48:13.766Z,101340.31
2023-05-13T02:50:44.169Z,101340.69
2023-05-13T02:53:13.282Z,101339.97
2023-05-13T02:55:47.183Z,101344.56
2023-05-13T02:58:15.306Z,101344.69
2023-05-13T03:00:47.193Z,101349.31
2023-05-13T03:03:18.355Z,101354.63
2023-05-13T03:05:46.246Z,101346.03
2023-05-13T03:08:13.857Z,101346.41
2023-05-13T03:10:41.514Z,101351.00
2023-05-13T03:13:09.697Z,101349.56
2023-05-13T03:15:37.632Z,101348.13
2023-05-13T03:18:06.338Z,101348.34
2023-05-13T03:20:35.273Z,101347.75
2023-05-13T03:23:04.648Z,101350.66
2023-05-13T03:25:33.693Z,101343.88
2023-05-13T03:28:01.578Z,101344.16
2023-05-13T03:30:57.040Z,101342.56
2023-05-13T03:33:25.289Z,101342.94
2023-05-13T03:35:55.917Z,101342.47
2023-05-13T03:38:29.276Z,101347.88
2023-05-13T03:40:57.155Z,101345.47
2023-05-13T03:43:25.444Z,101342.94
2023-05-13T03:45:58.279Z,101348.50
2023-05-13T03:48:26.802Z,101348.63
2023-05-13T03:50:58.450Z,101343.44
2023-05-13T03:53:27.173Z,101347.03
2023-05-13T03:55:56.646Z,101342.69
2023-05-13T03:58:24.316Z,101346.31
2023-05-13T04:00:52.597Z,101349.09
2023-05-13T04:03:20.511Z,101347.41
2023-05-13T04:05:49.800Z,101347.50
2023-05-13T04:08:24.186Z,101348.47
2023-05-13T04:10:51.776Z,101349.47
2023-05-13T04:13:20.196Z,101356.59
2023-05-13T04:15:49.257Z,101349.59
2023-05-13T04:18:18.562Z,101354.91
2023-05-13T04:20:47.275Z,101354.06
2023-05-13T04:23:15.354Z,101357.56
2023-05-13T04:25:51.547Z,101361.91
2023-05-13T04:28:20.188Z,101360.09
2023-05-13T04:30:49.510Z,101363.47
2023-05-13T04:33:17.353Z,101363.38
2023-05-13T04:35:48.258Z,101367.84
2023-05-13T04:38:19.278Z,101373.28
2023-05-13T04:40:48.732Z,101367.09
2023-05-13T04:43:22.546Z,101372.41
2023-05-13T04:45:58.184Z,101376.78
2023-05-13T04:48:28.117Z,101375.94
2023-05-13T04:50:59.187Z,101382.00
2023-05-13T04:53:28.308Z,101389.72
2023-05-13T04:56:01.181Z,101388.75
2023-05-13T04:58:30.503Z,101391.31
2023-05-13T05:00:58.309Z,101394.69
2023-05-13T05:03:30.253Z,101389.88
2023-05-13T05:05:59.124Z,101390.56
2023-05-13T05:08:29.188Z,101390.44
2023-05-13T05:10:58.577Z,101390.34
2023-05-13T05:13:27.532Z,101392.75
2023-05-13T05:15:55.171Z,101389.03
2023-05-13T05:18:22.933Z,101397.47
2023-05-13T05:20:52.099Z,101394.56
2023-05-13T05:23:22.571Z,101403.06
2023-05-13T05:25:58.085Z,101406.19
2023-05-13T05:28:40.032Z,101409.34
2023-05-13T05:31:08.402Z,101408.88
2023-05-13T05:33:38.174Z,101417.31
2023-05-13T05:36:32.212Z,101411.50
2023-05-13T05:39:05.294Z,101398.66
2023-05-13T05:41:36.478Z,101417.66
2023-05-13T05:44:06.118Z,101412.81
2023-05-13T05:46:36.008Z,101413.28
2023-05-13T05:49:04.103Z,101417.97
2023-05-13T05:51:35.402Z,101414.81
2023-05-13T05:54:04.617Z,101421.47
2023-05-13T05:56:32.440Z,101417.34
2023-05-13T05:59:01.189Z,101416.84
2023-05-13T06:01:33.647Z,101413.53
2023-05-13T06:04:02.254Z,101423.56
2023-05-13T06:06:32.243Z,101429.03
2023-05-13T06:09:01.736Z,101430.91
2023-05-13T06:11:30.308Z,101439.13
2023-05-13T06:14:00.200Z,101432.16
2023-05-13T06:16:33.443Z,101427.75
2023-05-13T06:19:01.342Z,101432.31
2023-05-13T06:21:29.119Z,101429.84
2023-05-13T06:24:21.015Z,101431.13
2023-05-13T06:26:48.699Z,101424.03
2023-05-13T06:29:16.908Z,101429.28
2023-05-13T06:31:45.925Z,101428.25
2023-05-13T06:34:17.234Z,101429.09
2023-05-13T06:36:45.828Z,101430.84
2023-05-13T06:39:14.653Z,101430.47
2023-05-13T06:41:46.208Z,101437.00
2023-05-13T06:44:16.571Z,101435.66
2023-05-13T06:46:52.367Z,101438.75
2023-05-13T06:49:25.080Z,101437.22
2023-05-13T06:51:54.580Z,101441.19
2023-05-13T06:54:22.171Z,101437.25
2023-05-13T06:56:52.211Z,101439.78
2023-05-13T06:59:22.343Z,101444.69
2023-05-13T07:01:51.394Z,101439.59
2023-05-13T07:04:19.124Z,101445.22
2023-05-13T07:06:49.377Z,101447.16
2023-05-13T07:09:18.104Z,101446.22
2023-05-13T07:11:46.190Z,101442.25
2023-05-13T07:14:13.870Z,101435.84
2023-05-13T07:16:42.191Z,101443.00
2023-05-13T07:19:11.226Z,101440.13
2023-05-13T07:21:40.185Z,101441.84
2023-05-13T07:24:09.411Z,101442.22
2023-05-13T07:26:37.105Z,101436.13
2023-05-13T07:29:06.083Z,101442.34
2023-05-13T07:31:36.183Z,101443.31
2023-05-13T07:34:03.812Z,101435.94
2023-05-13T07:36:32.717Z,101438.03
2023-05-13T07:39:02.158Z,101439.16
2023-05-13T07:44:22.774Z,101435.44
2023-05-13T07:46:53.290Z,101439.84
2023-05-13T07:49:21.344Z,101442.44
2023-05-13T07:51:52.680Z,101428.03
2023-05-13T07:54:20.781Z,101433.31
2023-05-13T07:56:50.184Z,101424.44
2023-05-13T07:59:18.204Z,101430.84
2023-05-13T08:01:46.377Z,101428.88
2023-05-13T08:04:14.100Z,101421.44
2023-05-13T08:06:42.212Z,101424.84
2023-05-13T08:09:12.203Z,101425.34
2023-05-13T08:11:41.756Z,101422.81
2023-05-13T08:14:09.399Z,101422.97
2023-05-13T08:16:38.828Z,101428.19
2023-05-13T08:19:07.293Z,101424.31
2023-05-13T08:21:35.607Z,101427.66
2023-05-13T08:24:03.861Z,101423.78
2023-05-13T08:26:34.216Z,101427.63
2023-05-13T08:29:02.690Z,101418.47
2023-05-13T08:31:31.958Z,101429.59
2023-05-13T08:34:00.317Z,101423.69
2023-05-13T08:36:29.585Z,101421.31
2023-05-13T08:39:02.210Z,101423.78
2023-05-13T08:41:31.614Z,101422.53
2023-05-13T08:44:01.595Z,101418.81
2023-05-13T08:46:33.413Z,101416.34
2023-05-13T08:49:03.694Z,101417.66
2023-05-13T08:51:56.201Z,101409.81
2023-05-13T08:54:26.857Z,101412.09
2023-05-13T08:56:54.544Z,101409.78
2023-05-13T08:59:24.053Z,101407.00
2023-05-13T09:01:53.632Z,101410.31
2023-05-13T09:04:22.307Z,101403.63
2023-05-13T09:06:50.621Z,101403.00
2023-05-13T09:09:19.061Z,101403.09
2023-05-13T09:11:49.202Z,101407.44
2023-05-13T09:14:20.063Z,101408.84
2023-05-13T09:16:51.084Z,101410.63
2023-05-13T09:19:19.824Z,101402.88
2023-05-13T09:21:47.533Z,101412.47
2023-05-13T09:24:20.218Z,101403.59
2023-05-13T09:26:48.771Z,101407.69
2023-05-13T09:29:24.282Z,101408.44
2023-05-13T09:31:54.698Z,101402.28
2023-05-13T09:34:30.680Z,101397.03
2023-05-13T09:37:04.339Z,101403.00
2023-05-13T09:39:58.363Z,101397.09
2023-05-13T09:42:26.011Z,101396.75
2023-05-13T09:44:53.642Z,101397.03
2023-05-13T09:47:25.631Z,101394.38
2023-05-13T09:49:56.675Z,101387.81
2023-05-13T09:52:25.350Z,101383.72
2023-05-13T09:54:53.186Z,101388.34
2023-05-13T09:57:21.820Z,101387.13
2023-05-13T09:59:49.450Z,101377.38
2023-05-13T10:05:15.275Z,101372.25
2023-05-13T10:07:43.065Z,101375.84
2023-05-13T10:10:12.238Z,101385.31
2023-05-13T10:12:41.494Z,101376.59
2023-05-13T10:15:10.758Z,101380.75
2023-05-13T10:17:39.288Z,101371.19
2023-05-13T10:20:34.223Z,101365.38
2023-05-13T10:23:04.101Z,101368.94
2023-05-13T10:25:32.490Z,101369.66
2023-05-13T10:28:03.897Z,101361.53
2023-05-13T10:30:32.568Z,101371.00
2023-05-13T10:33:01.400Z,101359.53
2023-05-13T10:35:37.529Z,101359.78
2023-05-13T10:38:11.333Z,101365.84
2023-05-13T10:40:54.282Z,101352.72
2023-05-13T10:43:25.635Z,101358.94
2023-05-13T10:45:58.240Z,101358.88
2023-05-13T10:48:31.299Z,101350.34
2023-05-13T10:51:06.572Z,101359.38
2023-05-13T10:53:47.242Z,101358.16
2023-05-13T10:56:15.978Z,101353.78
2023-05-13T10:58:44.229Z,101356.94
2023-05-13T11:01:18.339Z,101351.75
2023-05-13T11:03:56.395Z,101352.38
2023-05-13T11:06:26.947Z,101354.47
2023-05-13T11:08:56.522Z,101352.22
2023-05-13T11:11:27.430Z,101349.69
2023-05-13T11:13:56.711Z,101350.31
2023-05-13T11:16:24.990Z,101348.22
2023-05-13T11:18:53.468Z,101349.03
2023-05-13T11:21:31.339Z,101349.03
2023-05-13T11:24:03.895Z,101342.56
2023-05-13T11:26:48.434Z,101345.50
2023-05-13T11:29:16.718Z,101344.44
2023-05-13T11:31:47.159Z,101340.25
2023-05-13T11:34:17.369Z,101343.59
2023-05-13T11:36:47.368Z,101340.91
2023-05-13T11:39:18.162Z,101336.31
2023-05-13T11:41:47.471Z,101341.97
2023-05-13T11:44:17.318Z,101337.59
2023-05-13T11:46:56.700Z,101335.06
2023-05-13T11:49:40.381Z,101339.66
2023-05-13T11:52:12.840Z,101340.47
2023-05-13T11:54:49.538Z,101337.13
2023-05-13T11:57:23.403Z,101322.50
2023-05-13T11:59:57.462Z,101324.19
2023-05-13T12:02:28.410Z,101330.50
2023-05-13T12:04:56.609Z,101325.47
2023-05-13T12:07:25.750Z,101329.03
2023-05-13T12:09:58.513Z,101328.19
2023-05-13T12:12:27.750Z,101324.00
2023-05-13T12:14:56.656Z,101325.25
2023-05-13T12:17:25.453Z,101331.94
2023-05-13T12:20:16.268Z,101322.16
2023-05-13T12:22:56.663Z,101331.13
2023-05-13T12:25:43.590Z,101317.78
2023-05-13T12:28:13.604Z,101322.81
2023-05-13T12:30:43.071Z,101315.88
2023-05-13T12:33:15.117Z,101319.06
2023-05-13T12:35:43.309Z,101322.22
2023-05-13T12:38:16.164Z,101315.72
2023-05-13T12:40:46.295Z,101313.22
2023-05-13T12:43:15.540Z,101303.63
2023-05-13T12:45:46.427Z,101319.69
2023-05-13T12:48:16.335Z,101318.22
2023-05-13T12:50:43.871Z,101320.94
2023-05-13T12:53:11.759Z,101323.03
2023-05-13T12:56:04.253Z,101320.72
2023-05-13T12:58:33.599Z,101313.38
2023-05-13T13:01:05.155Z,101320.09
2023-05-13T13:03:34.313Z,101317.56
2023-05-13T13:06:02.027Z,101312.31
2023-05-13T13:08:30.719Z,101311.69
2023-05-13T13:11:00.317Z,101311.50
2023-05-13T13:13:28.276Z,101311.13
2023-05-13T13:15:57.382Z,101299.81
2023-05-13T13:18:25.882Z,101306.28
2023-05-13T13:20:54.346Z,101307.09
2023-05-13T13:23:22.326Z,101308.97
2023-05-13T13:25:49.911Z,101309.38
2023-05-13T13:28:17.662Z,101311.47
2023-05-13T13:31:09.824Z,101311.72
2023-05-13T13:36:57.273Z,101309.44
2023-05-13T13:39:24.859Z,101320.69
2023-05-13T13:41:52.803Z,101316.91
2023-05-13T13:44:20.535Z,101308.97
2023-05-13T13:46:52.227Z,101307.72
2023-05-13T13:49:24.119Z,101306.22
2023-05-13T13:51:52.396Z,101296.16
2023-05-13T13:54:20.349Z,101288.38
2023-05-13T13:56:49.364Z,101288.53
2023-05-13T13:59:19.089Z,101282.81
2023-05-13T14:02:12.327Z,101290.28
2023-05-13T14:04:43.373Z,101281.88
2023-05-13T14:07:11.200Z,101282.66
2023-05-13T14:09:39.268Z,101293.38
2023-05-13T14:12:07.090Z,101280.22
2023-05-13T14:14:34.664Z,101286.09
2023-05-13T14:17:02.361Z,101283.59
2023-05-13T14:19:29.970Z,101283.38
2023-05-13T14:21:59.358Z,101275.66
2023-05-13T14:24:31.055Z,101276.06
2023-05-13T14:26:59.167Z,101273.13
2023-05-13T14:29:27.366Z,101269.34
2023-05-13T14:31:56.469Z,101276.31
2023-05-13T14:34:24.346Z,101277.00
2023-05-13T14:36:52.101Z,101278.16
2023-05-13T14:39:21.838Z,101272.03
2023-05-13T14:41:49.436Z,101263.81
2023-05-13T14:44:17.376Z,101264.53
2023-05-13T14:46:45.057Z,101255.84
2023-05-13T14:49:12.795Z,101255.38
2023-05-13T14:51:40.358Z,101260.75
2023-05-13T14:54:08.015Z,101259.66
2023-05-13T14:56:37.798Z,101257.75
2023-05-13T14:59:09.261Z,101263.13
2023-05-13T15:01:37.678Z,101266.63
2023-05-13T15:04:07.710Z,101268.00
2023-05-13T15:06:36.232Z,101267.84
2023-05-13T15:09:03.894Z,101270.63
2023-05-13T15:11:31.469Z,101272.78
2023-05-13T15:14:01.340Z,101273.03
2023-05-13T15:16:29.068Z,101268.66
2023-05-13T15:18:57.399Z,101270.34
2023-05-13T15:21:25.865Z,101270.13
2023-05-13T15:23:53.706Z,101271.84
2023-05-13T15:26:23.251Z,101267.44
2023-05-13T15:28:51.781Z,101263.69
2023-05-13T15:31:20.821Z,101259.91
2023-05-13T15:33:48.455Z,101267.22
2023-05-13T15:36:17.653Z,101263.66
2023-05-13T15:38:45.395Z,101260.31
2023-05-13T15:41:12.968Z,101260.50
2023-05-13T15:46:34.678Z,101254.28
2023-05-13T15:49:02.581Z,101252.81
2023-05-13T15:51:30.316Z,101252.19
2023-05-13T15:53:57.923Z,101256.78
2023-05-13T15:56:27.293Z,101255.97
2023-05-13T15:58:56.390Z,101250.91
2023-05-13T16:01:26.344Z,101246.75
2023-05-13T16:03:56.417Z,101251.31
2023-05-13T16:06:24.269Z,101248.59
2023-05-13T16:08:55.626Z,101243.56
2023-05-13T16:11:24.884Z,101255.00
2023-05-13T16:13:52.902Z,101251.63
2023-05-13T16:16:21.084Z,101253.66
2023-05-13T16:18:49.307Z,101252.38
2023-05-13T16:21:19.613Z,101253.34
2023-05-13T16:23:47.179Z,101244.38
2023-05-13T16:26:15.310Z,101250.97
2023-05-13T16:28:45.389Z,101242.59
2023-05-13T16:31:13.130Z,101252.59
2023-05-13T16:33:40.834Z,101246.25
2023-05-13T16:36:10.913Z,101251.19
2023-05-13T16:38:41.284Z,101243.84
2023-05-13T16:41:08.896Z,101240.28
2023-05-13T16:43:36.595Z,101252.75
2023-05-13T16:46:05.045Z,101246.44
2023-05-13T16:48:32.698Z,101244.91
2023-05-13T16:51:00.261Z,101248.59
2023-05-13T16:53:27.936Z,101249.59
2023-05-13T16:55:57.011Z,101254.13
2023-05-13T16:58:24.884Z,101250.69
2023-05-13T17:00:52.969Z,101244.34
2023-05-13T17:03:20.733Z,101254.28
2023-05-13T17:05:48.811Z,101250.00
2023-05-13T17:08:19.166Z,101245.16
2023-05-13T17:10:46.809Z,101238.88
2023-05-13T17:13:15.854Z,101239.63
2023-05-13T17:15:43.517Z,101244.78
2023-05-13T17:18:11.446Z,101248.72
2023-05-13T17:20:39.555Z,101246.38
2023-05-13T17:23:07.573Z,101250.31
2023-05-13T17:25:35.420Z,101255.44
2023-05-13T17:28:03.144Z,101251.28
2023-05-13T17:30:32.268Z,101256.00
2023-05-13T17:32:59.927Z,101254.34
2023-05-13T17:35:27.831Z,101252.03
2023-05-13T17:37:55.384Z,101244.47
2023-05-13T17:40:23.556Z,101250.91
2023-05-13T17:42:52.830Z,101248.97
2023-05-13T17:45:21.014Z,101253.72
2023-05-13T17:47:50.256Z,101250.38
2023-05-13T17:50:18.247Z,101254.09
2023-05-13T17:52:45.984Z,101257.84
2023-05-13T17:55:13.559Z,101257.97
2023-05-13T17:57:42.422Z,101260.88
2023-05-13T18:00:10.951Z,101267.50
2023-05-13T18:02:39.930Z,101262.47
2023-05-13T18:05:10.127Z,101267.03
2023-05-13T18:07:37.924Z,101268.25
2023-05-13T18:10:06.841Z,101272.34
2023-05-13T18:12:34.503Z,101265.63
2023-05-13T18:15:03.547Z,101265.19
2023-05-13T18:17:31.080Z,101264.91
2023-05-13T18:20:00.351Z,101270.84
2023-05-13T18:22:29.433Z,101271.25
2023-05-13T18:24:57.078Z,101270.97
2023-05-13T18:27:25.533Z,101280.25
2023-05-13T18:29:53.308Z,101274.41
2023-05-13T18:32:20.932Z,101272.25
2023-05-13T18:34:48.674Z,101280.91
2023-05-13T18:37:16.794Z,101282.47
2023-05-13T18:39:46.091Z,101281.16
2023-05-13T18:42:13.716Z,101286.28
2023-05-13T18:44:41.351Z,101287.66
2023-05-13T18:47:08.988Z,101285.50
2023-05-13T18:49:36.775Z,101280.84
2023-05-13T18:52:04.827Z,101287.75
2023-05-13T18:54:32.630Z,101281.22
2023-05-13T18:57:03.160Z,101280.09
2023-05-13T18:59:30.913Z,101285.19
2023-05-13T19:01:58.972Z,101282.56
2023-05-13T19:04:26.949Z,101284.31
2023-05-13T19:06:54.766Z,101289.59
2023-05-13T19:09:22.591Z,101279.50
2023-05-13T19:11:50.303Z,101291.16
2023-05-13T19:14:19.227Z,101288.53
2023-05-13T19:16:48.342Z,101292.28
2023-05-13T19:19:17.474Z,101293.16
2023-05-13T19:21:45.203Z,101302.31
2023-05-13T19:24:12.818Z,101295.44
2023-05-13T19:26:40.692Z,101295.44
2023-05-13T19:29:08.459Z,101306.44
2023-05-13T19:31:37.456Z,101307.47
2023-05-13T19:34:05.236Z,101305.00
2023-05-13T19:36:35.299Z,101301.47
2023-05-13T19:39:03.424Z,101306.19
2023-05-13T19:41:30.998Z,101302.69
2023-05-13T19:43:58.640Z,101304.69
2023-05-13T19:46:27.463Z,101309.25
2023-05-13T19:48:56.555Z,101316.63
2023-05-13T19:51:24.426Z,101312.28
2023-05-13T19:53:52.309Z,101309.72
2023-05-13T19:56:19.965Z,101303.00
2023-05-13T19:58:47.509Z,101312.88
2023-05-13T20:01:15.750Z,101310.53
2023-05-13T20:03:43.518Z,101314.38
2023-05-13T20:06:13.320Z,101313.84
2023-05-13T20:08:41.204Z,101312.13
2023-05-13T20:11:08.976Z,101316.63
2023-05-13T20:13:36.649Z,101317.06
2023-05-13T20:16:04.810Z,101321.72
2023-05-13T20:18:32.510Z,101323.81
2023-05-13T20:21:00.421Z,101320.41
2023-05-13T20:23:29.393Z,101328.72
2023-05-13T20:25:58.152Z,101324.31
2023-05-13T20:28:25.797Z,101324.41
2023-05-13T20:30:53.779Z,101321.69
2023-05-13T20:33:21.860Z,101318.09
2023-05-13T20:35:49.418Z,101323.56
2023-05-13T20:38:17.913Z,101320.66
2023-05-13T20:40:47.376Z,101316.19
2023-05-13T20:43:16.627Z,101325.00
2023-05-13T20:45:44.402Z,101323.06
2023-05-13T20:48:13.438Z,101319.47
2023-05-13T20:50:41.833Z,101321.78
2023-05-13T20:53:11.342Z,101319.88
2023-05-13T20:55:39.127Z,101323.16
2023-05-13T20:58:08.171Z,101323.75
2023-05-13T21:00:35.783Z,101320.97
2023-05-13T21:03:03.939Z,101319.88
2023-05-13T21:05:31.636Z,101316.97
2023-05-13T21:07:59.397Z,101311.53
2023-05-13T21:10:27.001Z,101308.72
2023-05-13T21:12:55.325Z,101313.16
2023-05-13T21:15:25.183Z,101308.69
2023-05-13T21:17:53.138Z,101312.06
2023-05-13T21:20:22.234Z,101311.13
2023-05-13T21:22:49.981Z,101319.72
2023-05-13T21:25:21.319Z,101320.31
2023-05-13T21:27:49.433Z,101315.53
2023-05-13T21:30:17.996Z,101315.28
2023-05-13T21:32:46.948Z,101318.69
2023-05-13T21:35:14.729Z,101321.94
2023-05-13T21:37:42.364Z,101318.84
2023-05-13T21:40:12.498Z,101324.78
2023-05-13T21:42:40.082Z,101326.19
2023-05-13T21:45:10.558Z,101319.72
2023-05-13T21:47:38.468Z,101321.97
2023-05-13T21:50:11.437Z,101325.22
2023-05-13T21:52:39.612Z,101319.44
2023-05-13T21:55:08.257Z,101321.69
2023-05-13T21:57:35.964Z,101322.97
2023-05-13T22:00:04.620Z,101324.50
2023-05-13T22:02:32.494Z,101326.91
2023-05-13T22:05:00.062Z,101322.94
2023-05-13T22:07:29.088Z,101327.91
2023-05-13T22:09:57.447Z,101322.94
2023-05-13T22:12:28.510Z,101324.31
2023-05-13T22:14:57.312Z,101325.56
2023-05-13T22:17:25.317Z,101329.50
2023-05-13T22:19:53.774Z,101338.63
2023-05-13T22:22:21.351Z,101335.53
2023-05-13T22:24:50.438Z,101335.09
2023-05-13T22:27:18.751Z,101336.47
2023-05-13T22:29:46.357Z,101335.94
2023-05-13T22:32:14.022Z,101338.16
2023-05-13T22:34:41.992Z,101331.38
2023-05-13T22:37:10.553Z,101334.34
2023-05-13T22:39:38.343Z,101329.41
2023-05-13T22:42:07.973Z,101327.13
2023-05-13T22:44:36.799Z,101335.53
2023-05-13T22:47:06.252Z,101334.97
2023-05-13T22:49:33.820Z,101329.06
2023-05-13T22:52:01.900Z,101332.97
2023-05-13T22:54:30.970Z,101334.22
2023-05-13T22:56:59.149Z,101337.88
2023-05-13T22:59:28.421Z,101338.84
2023-05-13T23:01:58.311Z,101333.63
2023-05-13T23:04:26.373Z,101329.44
2023-05-13T23:06:54.433Z,101320.84
2023-05-13T23:09:21.972Z,101316.72
2023-05-13T23:11:49.801Z,101326.69
2023-05-13T23:14:17.357Z,101322.59
2023-05-13T23:16:46.469Z,101322.88
2023-05-13T23:19:14.115Z,101322.19
2023-05-13T23:21:42.317Z,101317.09
2023-05-13T23:24:09.908Z,101323.53
2023-05-13T23:26:37.527Z,101320.16
2023-05-13T23:29:05.442Z,101314.09
2023-05-13T23:31:33.587Z,101312.53
2023-05-13T23:34:02.660Z,101310.16
2023-05-13T23:36:30.984Z,101312.94
2023-05-13T23:38:58.583Z,101316.72
2023-05-13T23:41:26.240Z,101304.34
2023-05-13T23:43:54.745Z,101304.63
2023-05-13T23:46:22.487Z,101302.22
2023-05-13T23:48:51.349Z,101293.63
2023-05-13T23:51:20.739Z,101300.06
2023-05-13T23:53:53.490Z,101293.16
2023-05-13T23:56:21.342Z,101292.44
2023-05-13T23:58:48.945Z,101289.91
